Time;durP1;ratioP1;P1;durP2;ratioP2;P2;SDS_P1;SDS_P2;PMS_P1;PMS_P2;Temp;Humidity;BMP_temperature;BMP_pressure;BME280_temperature;BME280_humidity;BME280_pressure;Samples;Min_cycle;Max_cycle;Signal;HPM_P1;HPM_P2
2022/06/03 00:00:00;;;;;;;4.57;3.78;;;15.00;91.30;;;;;;2085574;28;20024;-71
2022/06/03 00:01:21;;;;;;;3.65;3.33;;;15.00;92.60;;;;;;2084796;28;20434;-71
2022/06/03 00:02:34;;;;;;;5.28;3.60;;;15.00;92.00;;;;;;2080295;28;20036;-71
2022/06/03 00:03:52;;;;;;;3.78;3.47;;;15.00;91.60;;;;;;2083792;28;20102;-71
2022/06/03 00:05:17;;;;;;;4.40;3.78;;;15.00;92.10;;;;;;2081967;28;20044;-71
2022/06/03 00:06:27;;;;;;;4.13;3.50;;;14.90;92.50;;;;;;2081859;28;20045;-71
2022/06/03 00:07:54;;;;;;;4.00;3.47;;;14.90;92.80;;;;;;2081379;28;20041;-71
2022/06/03 00:09:03;;;;;;;3.70;3.30;;;14.90;92.80;;;;;;2084425;28;20018;-71
2022/06/03 00:10:13;;;;;;;4.07;3.72;;;14.90;93.10;;;;;;2080355;28;20057;-71
2022/06/03 00:11:38;;;;;;;3.83;3.47;;;14.90;93.20;;;;;;2084611;28;20485;-71
2022/06/03 00:12:58;;;;;;;4.80;3.90;;;14.90;93.20;;;;;;2082225;28;20030;-71
2022/06/03 00:14:05;;;;;;;5.80;3.85;;;14.90;92.70;;;;;;2086380;28;21002;-71
2022/06/03 00:15:09;;;;;;;5.22;4.15;;;14.90;92.40;;;;;;2086478;28;20052;-71
2022/06/03 00:16:25;;;;;;;3.83;3.40;;;14.90;92.60;;;;;;2083306;28;20396;-71
2022/06/03 00:17:28;;;;;;;5.10;3.90;;;14.90;92.70;;;;;;2084355;28;20032;-71
2022/06/03 00:18:56;;;;;;;4.57;4.03;;;14.90;93.10;;;;;;2083691;28;20641;-71
2022/06/03 00:20:08;;;;;;;4.35;3.95;;;14.90;94.30;;;;;;2088360;28;20029;-71
2022/06/03 00:21:15;;;;;;;4.18;3.20;;;14.90;93.00;;;;;;2082014;28;20022;-71
2022/06/03 00:22:39;;;;;;;6.68;3.83;;;14.90;92.90;;;;;;2086777;28;20048;-71
2022/06/03 00:23:44;;;;;;;4.90;3.97;;;14.90;94.30;;;;;;2079096;28;20041;-71
2022/06/03 00:25:06;;;;;;;4.82;3.60;;;14.90;93.30;;;;;;2084001;28;20529;-71
2022/06/03 00:26:26;;;;;;;5.28;4.10;;;14.90;93.60;;;;;;2082571;28;20075;-71
2022/06/03 00:27:35;;;;;;;3.88;3.58;;;14.90;94.80;;;;;;2080916;28;20021;-71
2022/06/03 00:28:57;;;;;;;4.20;3.85;;;14.80;94.30;;;;;;2083112;28;20108;-71
2022/06/03 00:30:27;;;;;;;4.22;3.70;;;14.80;95.00;;;;;;2083350;28;20134;-71
2022/06/03 00:31:46;;;;;;;6.50;4.13;;;14.80;94.10;;;;;;2080725;28;20131;-71
2022/06/03 00:33:25;;;;;;;4.28;3.90;;;14.80;94.40;;;;;;2082085;28;20056;-71
2022/06/03 00:34:55;;;;;;;4.10;3.53;;;14.80;95.60;;;;;;2082904;28;20045;-71
2022/06/03 00:36:13;;;;;;;7.10;4.10;;;14.80;95.40;;;;;;2083790;28;20075;-71
2022/06/03 00:37:22;;;;;;;5.00;3.72;;;14.70;96.00;;;;;;2081003;28;20033;-71
2022/06/03 00:38:46;;;;;;;4.90;4.43;;;14.70;94.90;;;;;;2087581;28;20025;-71
2022/06/03 00:40:18;;;;;;;5.85;4.45;;;14.70;96.40;;;;;;2084879;28;20025;-71
2022/06/03 00:41:44;;;;;;;5.95;4.38;;;14.70;96.60;;;;;;2080412;28;20029;-71
2022/06/03 00:42:56;;;;;;;4.78;3.67;;;14.70;97.20;;;;;;2082851;28;20052;-71
2022/06/03 00:44:17;;;;;;;6.10;4.15;;;14.60;96.60;;;;;;2082123;28;20025;-71
2022/06/03 00:45:51;;;;;;;4.97;4.07;;;14.60;95.50;;;;;;2076543;28;20052;-71
2022/06/03 00:47:19;;;;;;;4.45;3.88;;;14.60;97.10;;;;;;2082112;28;20455;-71
2022/06/03 00:48:34;;;;;;;4.30;3.90;;;14.60;97.60;;;;;;2083260;28;20022;-71
2022/06/03 00:49:56;;;;;;;8.07;4.45;;;14.60;96.60;;;;;;2085161;28;20017;-71
2022/06/03 00:51:18;;;;;;;5.13;4.03;;;14.60;96.80;;;;;;2082094;28;20025;-71
2022/06/03 00:52:43;;;;;;;4.60;4.15;;;14.60;96.90;;;;;;2083216;28;20009;-71
2022/06/03 00:54:08;;;;;;;5.47;4.18;;;14.50;98.00;;;;;;2082251;28;20704;-71
2022/06/03 00:55:34;;;;;;;5.38;4.20;;;14.50;98.80;;;;;;2081428;28;20032;-71
2022/06/03 00:57:12;;;;;;;5.05;4.20;;;14.50;97.80;;;;;;2081006;28;20497;-71
2022/06/03 00:58:34;;;;;;;6.22;4.50;;;14.50;98.90;;;;;;2081249;28;20021;-71
2022/06/03 00:59:56;;;;;;;6.43;4.32;;;14.50;98.10;;;;;;2083271;28;20432;-71
2022/06/03 01:01:10;;;;;;;6.80;4.28;;;14.50;99.30;;;;;;2082939;28;20092;-71
2022/06/03 01:02:42;;;;;;;4.80;3.90;;;14.40;98.80;;;;;;2082992;28;20032;-71
2022/06/03 01:03:55;;;;;;;7.10;4.18;;;14.50;97.70;;;;;;2080914;28;20033;-71
2022/06/03 01:05:08;;;;;;;4.40;3.97;;;14.40;98.50;;;;;;2080673;28;20017;-71
2022/06/03 01:06:27;;;;;;;5.53;4.25;;;14.40;99.10;;;;;;2085546;28;20032;-71
2022/06/03 01:07:34;;;;;;;5.28;4.10;;;14.40;98.20;;;;;;2084146;28;20032;-71
2022/06/03 01:08:53;;;;;;;5.22;3.95;;;14.40;98.90;;;;;;2084009;28;20040;-71
2022/06/03 01:10:09;;;;;;;5.57;3.80;;;14.40;98.90;;;;;;2083246;28;20068;-71
2022/06/03 01:11:41;;;;;;;4.53;4.07;;;14.40;99.50;;;;;;2087371;28;20025;-71
2022/06/03 01:13:28;;;;;;;5.05;3.72;;;14.40;99.40;;;;;;2082519;28;20045;-71
2022/06/03 01:14:53;;;;;;;4.93;3.78;;;14.30;99.90;;;;;;2084360;28;20030;-71
2022/06/03 01:16:18;;;;;;;4.03;3.55;;;14.30;99.60;;;;;;2078330;28;20538;-71
2022/06/03 01:17:40;;;;;;;4.20;3.30;;;14.30;99.90;;;;;;2081442;28;20062;-71
2022/06/03 01:18:49;;;;;;;5.53;3.63;;;14.30;99.50;;;;;;2084739;28;20030;-71
2022/06/03 01:20:40;;;;;;;2.83;2.65;;;14.20;99.90;;;;;;2084149;28;20021;-71
2022/06/03 01:22:04;;;;;;;3.88;3.10;;;14.20;99.90;;;;;;2066074;28;20122;-71
2022/06/03 01:23:49;;;;;;;3.65;3.35;;;14.20;98.70;;;;;;2085572;28;20025;-71
2022/06/03 01:25:27;;;;;;;4.05;2.95;;;14.20;99.80;;;;;;2084218;28;20040;-71
2022/06/03 01:26:49;;;;;;;3.30;2.92;;;14.20;98.90;;;;;;2082962;28;20429;-71
2022/06/03 01:28:00;;;;;;;3.05;2.75;;;14.20;97.90;;;;;;2082146;28;20026;-71
2022/06/03 01:29:25;;;;;;;3.33;2.90;;;14.20;97.70;;;;;;2081448;28;20036;-71
2022/06/03 01:30:38;;;;;;;4.20;3.10;;;14.20;98.30;;;;;;2084416;28;20055;-71
2022/06/03 01:32:01;;;;;;;3.67;2.50;;;14.20;98.00;;;;;;2084171;28;20017;-71
2022/06/03 01:33:17;;;;;;;3.10;2.90;;;14.20;98.30;;;;;;2083570;28;20022;-71
2022/06/03 01:34:40;;;;;;;5.93;3.17;;;14.20;98.60;;;;;;2084213;28;20024;-71
2022/06/03 01:36:05;;;;;;;3.40;3.10;;;14.20;98.10;;;;;;2081758;28;20394;-71
2022/06/03 01:37:30;;;;;;;3.58;3.25;;;14.10;98.80;;;;;;2083211;28;20029;-71
2022/06/03 01:38:56;;;;;;;5.25;3.40;;;14.10;98.20;;;;;;2084290;28;20075;-71
2022/06/03 01:40:06;;;;;;;2.97;2.67;;;14.10;99.30;;;;;;2078038;28;20111;-71
2022/06/03 01:41:20;;;;;;;3.22;3.00;;;14.10;96.90;;;;;;2085968;28;20029;-71
2022/06/03 01:42:32;;;;;;;4.60;3.38;;;14.10;97.70;;;;;;2085821;28;20032;-71
2022/06/03 01:43:36;;;;;;;3.70;2.83;;;14.10;98.40;;;;;;2083750;28;20025;-71
2022/06/03 01:44:53;;;;;;;3.55;2.83;;;14.10;97.60;;;;;;2082864;28;20083;-71
2022/06/03 01:46:02;;;;;;;3.22;2.90;;;14.10;98.40;;;;;;2085868;28;20021;-71
2022/06/03 01:47:59;;;;;;;3.78;3.25;;;14.10;98.00;;;;;;2084263;28;20429;-71
2022/06/03 01:49:50;;;;;;;2.90;2.53;;;14.00;99.90;;;;;;2087902;28;20029;-71
2022/06/03 01:51:15;;;;;;;3.92;3.45;;;14.00;99.10;;;;;;2082354;28;20503;-71
2022/06/03 01:52:27;;;;;;;3.60;3.30;;;14.00;99.20;;;;;;2081791;28;20026;-71
2022/06/03 01:53:50;;;;;;;2.75;2.55;;;13.90;99.90;;;;;;2081819;28;20547;-71
2022/06/03 01:55:05;;;;;;;4.72;3.05;;;13.90;99.70;;;;;;2084028;28;20036;-71
2022/06/03 01:56:22;;;;;;;3.92;3.22;;;13.90;99.50;;;;;;2085319;28;20045;-71
2022/06/03 01:57:23;;;;;;;5.10;3.20;;;13.90;99.90;;;;;;2082299;28;20074;-71
2022/06/03 01:58:56;;;;;;;5.32;3.45;;;13.90;99.30;;;;;;2084086;28;20021;-71
2022/06/03 02:00:33;;;;;;;3.50;3.20;;;13.90;99.00;;;;;;2084132;28;20393;-71
2022/06/03 02:01:52;;;;;;;3.58;3.28;;;13.80;99.00;;;;;;2081673;28;20895;-71
2022/06/03 02:03:35;;;;;;;3.80;3.50;;;13.80;99.90;;;;;;2083701;28;20049;-71
2022/06/03 02:05:08;;;;;;;3.72;3.20;;;13.80;99.90;;;;;;2088321;28;20024;-71
2022/06/03 02:06:34;;;;;;;3.45;3.25;;;13.80;99.90;;;;;;2085370;28;20104;-71
2022/06/03 02:08:07;;;;;;;4.72;3.33;;;13.80;99.80;;;;;;2085159;28;20024;-71
2022/06/03 02:09:29;;;;;;;4.35;3.50;;;13.70;99.90;;;;;;2084276;28;20070;-71
2022/06/03 02:11:01;;;;;;;4.35;3.95;;;13.70;99.90;;;;;;2084666;28;20785;-71
2022/06/03 02:12:30;;;;;;;4.80;3.70;;;13.70;99.90;;;;;;2083465;28;20029;-71
2022/06/03 02:13:58;;;;;;;3.97;3.30;;;13.70;99.90;;;;;;2083719;28;20041;-71
2022/06/03 02:15:17;;;;;;;3.50;3.20;;;13.70;99.90;;;;;;2085188;28;20017;-71
2022/06/03 02:16:39;;;;;;;4.70;4.00;;;13.70;99.90;;;;;;2083576;28;20057;-71
2022/06/03 02:17:39;;;;;;;4.10;3.80;;;13.70;99.90;;;;;;2083087;28;20021;-71
2022/06/03 02:18:58;;;;;;;4.85;3.55;;;13.60;99.90;;;;;;2083705;28;20037;-71
2022/06/03 02:20:17;;;;;;;4.20;3.20;;;13.70;99.90;;;;;;2084402;28;20021;-71
2022/06/03 02:21:55;;;;;;;3.45;3.13;;;13.60;99.90;;;;;;2084240;28;20029;-71
2022/06/03 02:23:27;;;;;;;4.28;3.97;;;13.60;99.90;;;;;;2084632;28;20105;-71
2022/06/03 02:24:46;;;;;;;5.43;4.18;;;13.60;99.90;;;;;;2083402;28;20477;-71
2022/06/03 02:26:07;;;;;;;4.68;4.20;;;13.60;99.90;;;;;;2084007;28;20028;-71
2022/06/03 02:27:38;;;;;;;4.18;3.88;;;13.60;99.90;;;;;;2081243;28;20501;-71
2022/06/03 02:31:33;;;;;;;4.07;3.67;;;13.50;99.90;;;;;;2041588;29;20072;-71
2022/06/03 02:32:48;;;;;;;4.28;3.85;;;13.50;99.90;;;;;;2041961;29;20039;-71
2022/06/03 02:34:07;;;;;;;4.25;3.53;;;13.50;99.90;;;;;;2079310;28;20125;-71
2022/06/03 02:35:29;;;;;;;3.50;3.20;;;13.50;99.90;;;;;;2075725;28;20049;-71
2022/06/03 02:36:51;;;;;;;4.13;3.80;;;13.50;99.90;;;;;;2081408;28;20657;-71
2022/06/03 02:38:16;;;;;;;3.15;2.95;;;13.40;99.90;;;;;;2087709;28;20013;-71
2022/06/03 02:39:38;;;;;;;4.82;3.63;;;13.40;99.90;;;;;;2081470;28;20088;-71
2022/06/03 02:40:51;;;;;;;3.70;3.40;;;13.50;99.90;;;;;;2085046;28;20492;-71
2022/06/03 02:42:17;;;;;;;4.32;3.72;;;13.40;99.90;;;;;;2087252;28;20492;-71
2022/06/03 02:44:01;;;;;;;3.58;3.38;;;13.40;99.90;;;;;;2082632;28;20064;-71
2022/06/03 02:45:34;;;;;;;3.33;3.13;;;13.40;99.90;;;;;;2076522;28;20052;-71
2022/06/03 02:46:56;;;;;;;3.30;3.00;;;13.30;99.90;;;;;;2088385;28;20150;-71
2022/06/03 02:48:09;;;;;;;4.25;3.85;;;13.30;99.90;;;;;;2086422;28;20477;-71
2022/06/03 02:49:28;;;;;;;4.50;3.60;;;13.30;99.90;;;;;;2082649;28;20041;-71
2022/06/03 02:50:38;;;;;;;3.72;3.42;;;13.30;99.90;;;;;;2083562;28;20056;-71
2022/06/03 02:51:38;;;;;;;3.60;3.30;;;13.30;99.90;;;;;;2084698;28;20070;-71
2022/06/03 02:52:45;;;;;;;4.05;3.58;;;13.30;99.90;;;;;;2082481;28;20543;-71
2022/06/03 02:54:10;;;;;;;3.40;3.10;;;13.30;99.90;;;;;;2084237;28;20025;-71
2022/06/03 02:55:38;;;;;;;4.90;4.15;;;13.30;99.90;;;;;;2084318;28;20365;-71
2022/06/03 02:57:16;;;;;;;3.40;3.10;;;13.30;99.90;;;;;;2086923;28;20029;-71
2022/06/03 02:58:24;;;;;;;3.70;3.40;;;13.30;99.90;;;;;;2084319;28;20024;-71
2022/06/03 02:59:31;;;;;;;4.32;3.92;;;13.30;99.90;;;;;;2083128;28;20013;-71
2022/06/03 03:00:42;;;;;;;3.88;3.58;;;13.30;99.90;;;;;;2085639;28;20061;-71
2022/06/03 03:01:45;;;;;;;4.07;3.78;;;13.20;99.90;;;;;;2086314;28;20040;-71
2022/06/03 03:03:14;;;;;;;2.95;2.75;;;13.20;99.90;;;;;;2086813;28;20012;-71
2022/06/03 03:04:38;;;;;;;3.40;3.13;;;13.20;99.90;;;;;;2084105;28;20505;-71
2022/06/03 03:05:42;;;;;;;6.43;3.78;;;13.20;99.90;;;;;;2086602;28;20076;-71
2022/06/03 03:06:51;;;;;;;4.40;4.05;;;13.20;99.90;;;;;;2084152;28;20107;-71
2022/06/03 03:08:06;;;;;;;6.00;4.03;;;13.20;99.90;;;;;;2080660;28;20018;-71
2022/06/03 03:09:26;;;;;;;4.47;4.07;;;13.20;99.90;;;;;;2086994;28;20477;-71
2022/06/03 03:10:35;;;;;;;4.25;3.85;;;13.20;99.90;;;;;;2081581;28;20094;-71
2022/06/03 03:11:54;;;;;;;4.20;3.80;;;13.20;99.90;;;;;;2084254;28;20362;-71
2022/06/03 03:13:21;;;;;;;5.63;4.32;;;13.20;99.90;;;;;;2083374;28;20040;-71
2022/06/03 03:14:42;;;;;;;4.53;4.13;;;13.10;99.90;;;;;;2086073;28;20082;-71
2022/06/03 03:16:24;;;;;;;4.28;3.80;;;13.10;99.90;;;;;;2083814;28;20025;-71
2022/06/03 03:17:44;;;;;;;3.85;3.55;;;13.10;99.90;;;;;;2084235;28;20048;-71
2022/06/03 03:19:00;;;;;;;3.20;2.88;;;13.10;99.90;;;;;;2084386;28;20116;-71
2022/06/03 03:20:22;;;;;;;5.95;4.28;;;13.10;99.90;;;;;;2086322;28;20025;-71
2022/06/03 03:21:41;;;;;;;4.43;3.75;;;13.00;99.90;;;;;;2084086;28;20033;-71
2022/06/03 03:22:56;;;;;;;5.05;4.38;;;13.00;99.90;;;;;;2082474;28;20496;-71
2022/06/03 03:24:26;;;;;;;5.00;4.45;;;13.00;99.90;;;;;;2082419;28;20047;-71
2022/06/03 03:25:45;;;;;;;4.00;3.57;;;13.00;99.90;;;;;;2084809;28;20029;-71
2022/06/03 03:27:12;;;;;;;4.00;3.60;;;13.00;99.90;;;;;;2083861;28;20051;-71
2022/06/03 03:28:40;;;;;;;5.03;4.50;;;13.00;99.90;;;;;;2084437;28;20075;-71
2022/06/03 03:29:58;;;;;;;4.60;4.20;;;13.00;99.90;;;;;;2083844;28;20056;-71
2022/06/03 03:31:36;;;;;;;4.20;3.80;;;13.00;99.90;;;;;;2079891;28;20025;-71
2022/06/03 03:33:03;;;;;;;3.75;3.45;;;12.90;99.90;;;;;;2083966;28;20028;-71
2022/06/03 03:34:29;;;;;;;4.55;4.20;;;12.90;99.90;;;;;;2081817;28;20349;-71
2022/06/03 03:36:11;;;;;;;4.10;3.65;;;12.90;99.90;;;;;;2081538;28;20025;-71
2022/06/03 03:37:24;;;;;;;4.38;3.97;;;12.90;99.90;;;;;;2089083;28;20465;-71
2022/06/03 03:39:08;;;;;;;5.00;4.60;;;12.90;99.90;;;;;;2089525;28;20025;-71
2022/06/03 03:40:11;;;;;;;5.25;3.85;;;12.80;99.90;;;;;;2081825;28;20397;-71
2022/06/03 03:41:47;;;;;;;4.57;4.18;;;12.80;99.90;;;;;;2083021;28;20052;-70
2022/06/03 03:43:08;;;;;;;5.15;4.78;;;12.80;99.90;;;;;;2066752;28;20418;-71
2022/06/03 03:44:36;;;;;;;4.70;4.25;;;12.80;99.90;;;;;;2085121;28;20112;-71
2022/06/03 03:45:46;;;;;;;3.58;3.28;;;12.80;99.90;;;;;;2084683;28;20040;-71
2022/06/03 03:47:01;;;;;;;5.20;4.30;;;12.80;99.90;;;;;;2083317;28;20029;-71
2022/06/03 03:48:10;;;;;;;4.95;4.45;;;12.80;99.90;;;;;;2087765;28;20055;-71
2022/06/03 03:49:28;;;;;;;5.30;4.00;;;12.80;99.90;;;;;;2084900;28;20044;-71
2022/06/03 03:50:50;;;;;;;5.45;5.00;;;12.80;99.90;;;;;;2081665;28;20036;-71
2022/06/03 03:52:37;;;;;;;5.45;4.70;;;12.80;99.90;;;;;;2086710;28;20484;-72
2022/06/03 03:54:06;;;;;;;5.60;5.00;;;12.80;99.90;;;;;;2076141;28;20029;-71
2022/06/03 03:55:18;;;;;;;5.03;4.45;;;12.70;99.90;;;;;;2074860;28;20029;-71
2022/06/03 03:56:24;;;;;;;5.10;4.70;;;12.80;99.90;;;;;;2080622;28;20033;-71
2022/06/03 03:57:47;;;;;;;4.53;4.10;;;12.80;99.90;;;;;;2083661;28;20021;-71
2022/06/03 03:59:24;;;;;;;5.35;4.85;;;12.90;99.90;;;;;;2086120;28;20444;-71
2022/06/03 04:00:24;;;;;;;5.95;4.60;;;13.00;99.90;;;;;;2080935;28;20508;-71
2022/06/03 04:01:40;;;;;;;5.22;4.78;;;13.20;99.90;;;;;;2081430;28;20472;-71
2022/06/03 04:02:49;;;;;;;5.82;4.50;;;13.30;99.90;;;;;;2082339;28;20078;-71
2022/06/03 04:03:59;;;;;;;6.63;5.00;;;13.40;99.90;;;;;;2083501;28;20105;-71
2022/06/03 04:05:23;;;;;;;5.50;4.15;;;13.50;99.90;;;;;;2083538;28;20061;-71
2022/06/03 04:06:29;;;;;;;4.55;4.15;;;13.70;99.90;;;;;;2086033;28;20033;-71
2022/06/03 04:07:55;;;;;;;7.70;4.63;;;13.90;99.90;;;;;;2081028;28;20018;-71
2022/06/03 04:09:24;;;;;;;6.05;4.63;;;14.10;99.90;;;;;;2083495;28;20031;-71
2022/06/03 04:10:54;;;;;;;5.13;4.00;;;14.30;99.90;;;;;;2081846;28;20025;-71
2022/06/03 04:12:32;;;;;;;4.88;4.25;;;14.50;99.90;;;;;;2082452;28;20492;-71
2022/06/03 04:13:57;;;;;;;4.78;4.38;;;14.70;99.90;;;;;;2086514;28;20029;-71
2022/06/03 04:15:04;;;;;;;5.35;4.70;;;14.80;99.90;;;;;;2083692;28;20100;-71
2022/06/03 04:16:56;;;;;;;6.70;4.25;;;14.80;99.90;;;;;;2084044;28;20021;-71
2022/06/03 04:17:57;;;;;;;4.20;3.80;;;14.90;99.90;;;;;;2076526;28;20048;-71
2022/06/03 04:19:34;;;;;;;5.18;4.20;;;15.10;99.90;;;;;;2083254;28;20021;-71
2022/06/03 04:21:11;;;;;;;4.70;4.22;;;15.50;99.90;;;;;;2083405;28;20018;-71
2022/06/03 04:22:45;;;;;;;4.95;3.80;;;15.90;98.00;;;;;;2081336;28;20022;-71
2022/06/03 04:24:14;;;;;;;5.10;4.63;;;16.20;94.60;;;;;;2084896;28;20025;-71
2022/06/03 04:25:20;;;;;;;4.57;4.10;;;16.60;93.40;;;;;;2083239;28;20389;-71
2022/06/03 04:27:03;;;;;;;4.15;3.85;;;16.80;91.40;;;;;;2083984;28;20310;-71
2022/06/03 04:28:35;;;;;;;4.70;4.32;;;16.90;88.30;;;;;;2086580;28;20063;-71
2022/06/03 04:29:51;;;;;;;4.70;3.88;;;16.90;87.50;;;;;;2080600;28;20148;-71
2022/06/03 04:31:29;;;;;;;4.75;4.00;;;16.80;88.80;;;;;;2082707;28;20099;-71
2022/06/03 04:32:35;;;;;;;4.45;4.05;;;16.70;89.90;;;;;;2083530;28;20017;-71
2022/06/03 04:33:53;;;;;;;4.35;3.95;;;16.60;90.70;;;;;;2085155;28;20026;-71
2022/06/03 04:35:12;;;;;;;4.53;3.08;;;16.50;90.80;;;;;;2082365;28;20382;-71
2022/06/03 04:36:38;;;;;;;4.05;3.53;;;16.40;91.30;;;;;;2084943;28;20084;-71
2022/06/03 04:37:59;;;;;;;4.47;3.40;;;16.40;91.80;;;;;;2083956;28;20048;-71
2022/06/03 04:39:18;;;;;;;6.82;3.55;;;16.40;91.90;;;;;;2083056;28;20489;-71
2022/06/03 04:40:40;;;;;;;4.35;3.28;;;16.40;92.30;;;;;;2084876;28;20499;-71
2022/06/03 04:42:00;;;;;;;4.43;3.38;;;16.40;93.10;;;;;;2081154;28;20037;-71
2022/06/03 04:43:41;;;;;;;3.80;3.17;;;16.50;93.90;;;;;;2083754;28;20048;-71
2022/06/03 04:45:01;;;;;;;4.55;3.72;;;16.50;91.90;;;;;;2083898;28;20106;-71
2022/06/03 04:46:18;;;;;;;4.70;3.30;;;16.60;93.80;;;;;;2083776;28;20031;-71
2022/06/03 04:47:53;;;;;;;5.10;3.03;;;16.60;93.80;;;;;;2086871;28;20055;-71
2022/06/03 04:49:26;;;;;;;3.20;3.00;;;16.60;92.20;;;;;;2083320;28;20028;-71
2022/06/03 04:50:50;;;;;;;3.40;3.10;;;16.70;93.00;;;;;;2082908;28;20021;-71
2022/06/03 04:52:40;;;;;;;3.55;3.15;;;16.70;93.50;;;;;;2084034;28;20032;-71
2022/06/03 04:54:03;;;;;;;3.28;2.97;;;16.80;91.50;;;;;;2081922;28;20029;-71
2022/06/03 04:55:15;;;;;;;5.30;3.67;;;16.80;92.70;;;;;;2087600;28;20017;-71
2022/06/03 04:56:44;;;;;;;4.78;3.55;;;16.90;91.40;;;;;;2090188;28;20032;-71
2022/06/03 04:58:11;;;;;;;3.97;3.35;;;16.90;90.50;;;;;;2082054;28;20108;-71
2022/06/03 04:59:39;;;;;;;4.65;3.35;;;16.90;91.40;;;;;;2080679;28;20440;-71
2022/06/03 05:00:59;;;;;;;2.92;2.72;;;17.10;90.60;;;;;;2083099;28;20536;-71
2022/06/03 05:02:28;;;;;;;3.65;3.35;;;17.10;90.90;;;;;;2082831;28;20748;-71
2022/06/03 05:04:06;;;;;;;3.50;3.20;;;17.10;89.20;;;;;;2081476;28;20163;-71
2022/06/03 05:05:44;;;;;;;6.25;2.85;;;17.20;90.00;;;;;;2083512;28;20018;-71
2022/06/03 05:07:15;;;;;;;6.57;3.40;;;17.30;89.10;;;;;;2081923;28;20112;-71
2022/06/03 05:08:49;;;;;;;4.82;3.10;;;17.30;89.60;;;;;;2081209;28;20048;-71
2022/06/03 05:10:08;;;;;;;3.50;3.20;;;17.50;90.00;;;;;;2084722;28;20116;-71
2022/06/03 05:11:45;;;;;;;5.40;2.88;;;17.60;88.10;;;;;;2081853;28;20037;-71
2022/06/03 05:13:06;;;;;;;3.70;3.40;;;17.70;86.40;;;;;;2084754;28;20504;-71
2022/06/03 05:14:18;;;;;;;3.80;3.50;;;17.70;84.00;;;;;;2085554;28;20033;-71
2022/06/03 05:16:12;;;;;;;3.88;2.90;;;17.80;86.60;;;;;;2082372;28;20025;-71
2022/06/03 05:17:51;;;;;;;3.33;3.03;;;17.80;82.90;;;;;;2081629;28;20051;-71
2022/06/03 05:18:52;;;;;;;3.13;2.85;;;17.90;84.10;;;;;;2075300;28;20137;-71
2022/06/03 05:20:29;;;;;;;4.93;3.40;;;18.00;85.90;;;;;;2073227;28;20560;-71
2022/06/03 05:21:31;;;;;;;3.30;3.00;;;18.10;81.80;;;;;;2082812;28;20031;-71
2022/06/03 05:22:58;;;;;;;3.90;3.00;;;18.10;83.70;;;;;;2083430;28;20083;-71
2022/06/03 05:24:17;;;;;;;5.53;3.25;;;18.10;81.50;;;;;;2080895;28;20037;-71
2022/06/03 05:25:50;;;;;;;3.80;2.85;;;18.20;81.00;;;;;;2080101;28;20033;-71
2022/06/03 05:27:14;;;;;;;3.20;2.90;;;18.30;80.80;;;;;;2083711;28;20052;-71
2022/06/03 05:28:18;;;;;;;3.05;2.75;;;18.30;81.70;;;;;;2081841;28;20052;-71
2022/06/03 05:29:46;;;;;;;4.78;2.90;;;18.40;81.70;;;;;;2082441;28;20393;-71
2022/06/03 05:30:49;;;;;;;3.50;3.20;;;18.50;77.80;;;;;;2080539;28;20056;-71
2022/06/03 05:32:14;;;;;;;3.90;3.00;;;18.50;78.90;;;;;;2082236;28;20060;-71
2022/06/03 05:33:37;;;;;;;3.38;3.00;;;18.60;77.10;;;;;;2083366;28;20481;-71
2022/06/03 05:35:09;;;;;;;3.78;2.88;;;18.70;76.70;;;;;;2079470;28;20025;-71
2022/06/03 05:36:34;;;;;;;4.97;3.13;;;18.70;75.60;;;;;;2084272;28;20029;-71
2022/06/03 05:37:53;;;;;;;3.55;3.05;;;18.80;76.20;;;;;;2085246;28;20416;-72
2022/06/03 05:39:25;;;;;;;3.28;2.75;;;18.90;76.00;;;;;;2081940;28;20064;-72
2022/06/03 05:40:37;;;;;;;4.13;2.83;;;19.00;75.00;;;;;;2079944;28;20713;-71
2022/06/03 05:42:27;;;;;;;6.35;3.10;;;19.10;75.50;;;;;;2082485;28;20469;-71
2022/06/03 05:43:42;;;;;;;4.85;2.63;;;19.20;73.70;;;;;;2079419;28;20033;-72
2022/06/03 05:44:46;;;;;;;4.05;3.10;;;19.30;75.20;;;;;;2083479;28;20061;-72
2022/06/03 05:46:09;;;;;;;3.50;3.20;;;19.40;73.70;;;;;;2084679;28;20155;-72
2022/06/03 05:47:17;;;;;;;3.80;2.53;;;19.50;71.40;;;;;;2082148;28;20029;-72
2022/06/03 05:48:23;;;;;;;3.15;2.35;;;19.50;71.80;;;;;;2085992;28;20018;-72
2022/06/03 05:49:36;;;;;;;4.93;2.83;;;19.60;73.20;;;;;;2081365;28;20092;-72
2022/06/03 05:51:11;;;;;;;3.13;2.85;;;19.70;73.30;;;;;;2084380;28;20024;-71
2022/06/03 05:52:27;;;;;;;3.97;3.00;;;19.80;70.20;;;;;;2083491;28;20108;-71
2022/06/03 05:53:39;;;;;;;3.78;2.92;;;19.80;69.50;;;;;;2079779;28;20021;-71
2022/06/03 05:54:43;;;;;;;3.58;2.95;;;19.90;69.90;;;;;;2086169;28;20022;-71
2022/06/03 05:55:55;;;;;;;2.90;2.50;;;19.90;71.00;;;;;;2084887;28;20362;-71
2022/06/03 05:57:17;;;;;;;3.50;3.20;;;20.00;70.10;;;;;;2084103;28;20104;-72
2022/06/03 05:58:49;;;;;;;4.95;3.13;;;20.10;69.00;;;;;;2084932;28;20468;-71
2022/06/03 06:00:06;;;;;;;3.17;2.53;;;20.10;66.70;;;;;;2084370;28;20025;-71
2022/06/03 06:01:33;;;;;;;3.72;2.95;;;20.20;68.40;;;;;;2083485;28;20140;-71
2022/06/03 06:02:58;;;;;;;3.47;2.90;;;20.30;68.20;;;;;;2084007;28;20392;-72
2022/06/03 06:04:20;;;;;;;3.42;2.60;;;20.40;66.30;;;;;;2084678;28;20032;-72
2022/06/03 06:05:36;;;;;;;4.70;3.08;;;20.40;67.30;;;;;;2084470;28;20030;-72
2022/06/03 06:06:52;;;;;;;2.95;2.70;;;20.50;67.10;;;;;;2084713;28;20026;-71
2022/06/03 06:08:13;;;;;;;3.90;3.50;;;20.50;67.40;;;;;;2083571;28;20399;-71
2022/06/03 06:09:42;;;;;;;4.22;3.00;;;20.60;66.10;;;;;;2082775;28;20021;-71
2022/06/03 06:11:15;;;;;;;3.47;3.17;;;20.70;66.40;;;;;;2084340;28;20127;-71
2022/06/03 06:12:35;;;;;;;8.65;3.17;;;20.70;64.40;;;;;;2083044;28;20112;-71
2022/06/03 06:14:00;;;;;;;5.18;3.20;;;20.80;64.50;;;;;;2083213;28;20025;-71
2022/06/03 06:15:20;;;;;;;6.75;3.70;;;20.80;63.20;;;;;;2082565;28;20109;-71
2022/06/03 06:16:29;;;;;;;5.55;3.63;;;20.80;64.50;;;;;;2083427;28;20124;-71
2022/06/03 06:17:48;;;;;;;3.28;2.97;;;20.90;64.90;;;;;;2083476;28;20489;-71
2022/06/03 06:18:55;;;;;;;3.88;3.25;;;20.90;63.60;;;;;;2082560;28;20550;-71
2022/06/03 06:20:05;;;;;;;9.40;3.65;;;20.90;64.00;;;;;;2080868;28;20096;-71
2022/06/03 06:21:25;;;;;;;3.38;2.83;;;21.00;64.40;;;;;;2082997;28;20021;-71
2022/06/03 06:22:29;;;;;;;4.95;2.90;;;21.00;63.30;;;;;;2090876;28;20099;-71
2022/06/03 06:23:50;;;;;;;4.60;3.10;;;21.10;64.00;;;;;;2090163;28;20048;-71
2022/06/03 06:25:14;;;;;;;8.48;3.55;;;21.10;63.20;;;;;;2083732;28;20046;-71
2022/06/03 06:26:36;;;;;;;3.38;3.05;;;21.20;60.90;;;;;;2082105;28;20101;-71
2022/06/03 06:27:59;;;;;;;5.03;2.92;;;21.20;60.80;;;;;;2081531;28;20108;-71
2022/06/03 06:29:00;;;;;;;4.63;3.20;;;21.20;62.50;;;;;;2083538;28;20029;-71
2022/06/03 06:30:10;;;;;;;4.65;2.63;;;21.20;62.60;;;;;;2081544;28;20397;-71
2022/06/03 06:31:11;;;;;;;5.82;3.15;;;21.20;62.50;;;;;;2082963;28;20102;-71
2022/06/03 06:32:50;;;;;;;4.18;2.90;;;21.20;61.90;;;;;;2081930;28;20025;-71
2022/06/03 06:34:28;;;;;;;6.25;2.85;;;21.30;60.80;;;;;;2084259;28;20093;-71
2022/06/03 06:35:53;;;;;;;5.00;2.80;;;21.40;62.10;;;;;;2084939;28;20032;-71
2022/06/03 06:37:17;;;;;;;4.93;2.78;;;21.50;60.60;;;;;;2081916;28;20022;-71
2022/06/03 06:38:44;;;;;;;2.85;2.65;;;21.50;60.90;;;;;;2081117;28;20025;-72
2022/06/03 06:39:57;;;;;;;4.90;2.83;;;21.60;62.20;;;;;;2086062;28;20017;-72
2022/06/03 06:41:31;;;;;;;3.72;2.58;;;21.70;61.40;;;;;;2084269;28;20025;-71
2022/06/03 06:42:47;;;;;;;4.35;2.22;;;21.80;58.50;;;;;;2084607;28;20036;-71
2022/06/03 06:44:29;;;;;;;3.25;2.60;;;21.80;59.40;;;;;;2083387;28;20029;-71
2022/06/03 06:45:47;;;;;;;2.83;2.25;;;21.80;57.30;;;;;;2066711;28;20034;-71
2022/06/03 06:46:57;;;;;;;4.40;2.35;;;21.80;58.20;;;;;;2081656;28;20026;-71
2022/06/03 06:48:39;;;;;;;3.78;2.17;;;21.80;58.50;;;;;;2088866;28;20033;-71
2022/06/03 06:50:32;;;;;;;3.97;2.40;;;21.80;58.40;;;;;;2084469;28;20524;-71
2022/06/03 06:51:41;;;;;;;5.07;2.40;;;21.90;57.80;;;;;;2075186;28;20048;-71
2022/06/03 06:53:03;;;;;;;4.80;2.40;;;21.90;58.80;;;;;;2079481;28;20102;-71
2022/06/03 06:54:12;;;;;;;5.55;2.15;;;21.90;59.20;;;;;;2083915;28;20027;-71
2022/06/03 06:55:21;;;;;;;2.78;2.00;;;22.00;59.20;;;;;;2089004;28;20108;-71
2022/06/03 06:56:57;;;;;;;5.03;2.75;;;22.00;58.40;;;;;;2081565;28;20033;-71
2022/06/03 06:58:04;;;;;;;3.80;2.17;;;22.00;57.40;;;;;;2077385;28;20901;-71
2022/06/03 06:59:10;;;;;;;2.67;1.95;;;22.00;58.30;;;;;;2082488;28;20041;-71
2022/06/03 07:00:18;;;;;;;4.70;1.85;;;22.10;58.40;;;;;;2085482;28;20484;-71
2022/06/03 07:01:27;;;;;;;2.63;1.88;;;22.20;58.40;;;;;;2088758;28;20032;-71
2022/06/03 07:02:46;;;;;;;3.78;2.08;;;22.20;58.00;;;;;;2081943;28;20017;-71
2022/06/03 07:03:55;;;;;;;2.53;1.70;;;22.30;58.40;;;;;;2082219;28;20167;-71
2022/06/03 07:05:34;;;;;;;3.75;2.30;;;22.30;59.10;;;;;;2084085;28;20021;-71
2022/06/03 07:06:47;;;;;;;4.30;1.67;;;22.40;58.20;;;;;;2075959;28;20532;-71
2022/06/03 07:07:57;;;;;;;5.03;2.00;;;22.50;58.40;;;;;;2078543;28;20980;-71